createdAt,value
2023-01-19T00:02:26.503Z,14.91
2023-01-19T00:07:30.407Z,14.91
2023-01-19T00:12:32.932Z,14.89
2023-01-19T00:17:34.884Z,14.86
2023-01-19T00:22:36.964Z,14.91
2023-01-19T00:27:39.077Z,14.88
2023-01-19T00:32:41.168Z,14.89
2023-01-19T00:37:46.414Z,14.82
2023-01-19T00:42:48.830Z,14.78
2023-01-19T00:47:57.426Z,14.78
2023-01-19T00:53:01.578Z,14.77
2023-01-19T00:58:04.163Z,14.79
2023-01-19T01:03:06.406Z,14.76
2023-01-19T01:08:08.526Z,14.75
2023-01-19T01:13:20.334Z,14.75
2023-01-19T01:18:26.512Z,14.75
2023-01-19T01:23:28.620Z,14.78
2023-01-19T01:28:31.857Z,14.74
2023-01-19T01:33:39.956Z,14.78
2023-01-19T01:38:43.823Z,14.77
2023-01-19T01:43:46.015Z,14.80
2023-01-19T01:49:15.971Z,14.78
2023-01-19T01:54:23.441Z,14.79
2023-01-19T01:59:29.888Z,14.78
2023-01-19T02:04:32.356Z,14.78
2023-01-19T02:09:55.972Z,14.77
2023-01-19T02:14:58.098Z,14.77
2023-01-19T02:20:00.229Z,14.77
2023-01-19T02:25:06.321Z,14.78
2023-01-19T02:30:10.267Z,14.78
2023-01-19T02:35:13.306Z,14.78
2023-01-19T02:40:20.424Z,14.78
2023-01-19T02:45:23.726Z,14.77
2023-01-19T02:50:34.552Z,14.83
2023-01-19T02:55:38.172Z,14.83
2023-01-19T03:00:58.975Z,14.78
2023-01-19T03:06:12.281Z,14.74
2023-01-19T03:11:15.162Z,14.72
2023-01-19T03:16:17.376Z,14.70
2023-01-19T03:21:22.254Z,14.72
2023-01-19T03:26:30.064Z,14.70
2023-01-19T03:31:34.442Z,14.71
2023-01-19T03:36:43.917Z,14.69
2023-01-19T03:41:49.510Z,14.69
2023-01-19T03:46:52.375Z,14.68
2023-01-19T03:51:59.192Z,14.67
2023-01-19T03:57:01.330Z,14.64
2023-01-19T04:02:03.633Z,14.65
2023-01-19T04:07:05.907Z,14.65
2023-01-19T04:12:08.333Z,14.64
2023-01-19T04:17:10.759Z,14.62
2023-01-19T04:22:12.944Z,14.63
2023-01-19T04:27:16.627Z,14.64
2023-01-19T04:32:19.130Z,14.65
2023-01-19T04:37:21.316Z,14.64
2023-01-19T04:42:24.132Z,14.63
2023-01-19T04:47:26.484Z,14.63
2023-01-19T04:52:36.094Z,14.58
2023-01-19T04:57:38.310Z,14.63
2023-01-19T05:02:42.894Z,14.63
2023-01-19T05:07:45.642Z,14.60
2023-01-19T05:12:47.896Z,14.63
2023-01-19T05:17:50.130Z,14.63
2023-01-19T05:22:53.563Z,14.61
2023-01-19T05:27:55.639Z,14.62
2023-01-19T05:32:57.791Z,14.63
2023-01-19T05:37:59.985Z,14.60
2023-01-19T05:43:05.516Z,14.59
2023-01-19T05:48:09.524Z,14.58
2023-01-19T05:53:12.414Z,14.57
2023-01-19T05:58:14.566Z,14.55
2023-01-19T06:03:16.812Z,14.55
2023-01-19T06:08:19.431Z,14.50
2023-01-19T06:13:21.875Z,14.48
2023-01-19T06:18:24.179Z,14.49
2023-01-19T06:23:27.588Z,14.51
2023-01-19T06:28:30.065Z,14.53
2023-01-19T06:33:32.326Z,14.53
2023-01-19T06:38:34.436Z,14.54
2023-01-19T06:43:36.811Z,14.54
2023-01-19T06:48:38.946Z,14.55
2023-01-19T06:53:41.058Z,14.57
2023-01-19T06:58:43.559Z,14.56
2023-01-19T07:03:46.968Z,14.58
2023-01-19T07:08:49.197Z,14.58
2023-01-19T07:13:54.906Z,14.56
2023-01-19T07:18:57.019Z,14.57
2023-01-19T07:23:59.163Z,14.55
2023-01-19T07:29:01.354Z,14.60
2023-01-19T07:34:03.462Z,14.62
2023-01-19T07:39:05.543Z,14.64
2023-01-19T07:44:08.922Z,14.66
2023-01-19T07:49:11.789Z,14.66
2023-01-19T07:54:13.919Z,14.68
2023-01-19T07:59:16.084Z,14.66
2023-01-19T08:04:19.321Z,14.63
2023-01-19T08:09:21.755Z,14.61
2023-01-19T08:14:23.877Z,14.60
2023-01-19T08:19:26.071Z,14.58
2023-01-19T08:24:29.337Z,14.57
2023-01-19T08:29:32.168Z,14.57
2023-01-19T08:34:34.257Z,14.57
2023-01-19T08:39:36.409Z,14.56
2023-01-19T08:44:46.644Z,14.53
2023-01-19T08:49:55.299Z,14.51
2023-01-19T08:54:57.440Z,14.50
2023-01-19T08:59:59.575Z,14.49
2023-01-19T09:05:01.715Z,14.50
2023-01-19T09:10:05.365Z,14.53
2023-01-19T09:15:08.331Z,14.50
2023-01-19T09:20:11.072Z,14.47
2023-01-19T09:25:13.356Z,14.47
2023-01-19T09:30:17.431Z,14.47
2023-01-19T09:35:19.644Z,14.42
2023-01-19T09:40:22.021Z,14.43
2023-01-19T09:45:46.247Z,14.41
2023-01-19T09:50:49.577Z,14.42
2023-01-19T09:55:51.717Z,14.41
2023-01-19T10:01:04.891Z,14.40
2023-01-19T10:06:12.077Z,14.39
2023-01-19T10:11:42.015Z,14.39
2023-01-19T10:17:15.032Z,14.41
2023-01-19T10:22:24.697Z,14.40
2023-01-19T10:27:30.585Z,14.40
2023-01-19T10:32:37.148Z,14.41
2023-01-19T10:37:44.908Z,14.39
2023-01-19T10:42:47.182Z,14.41
2023-01-19T10:47:50.284Z,14.43
2023-01-19T10:52:57.718Z,14.42
2023-01-19T10:58:00.099Z,14.44
2023-01-19T11:03:03.505Z,14.44
2023-01-19T11:08:31.289Z,14.45
2023-01-19T11:13:33.482Z,14.45
2023-01-19T11:18:38.393Z,14.46
2023-01-19T11:23:46.379Z,14.47
2023-01-19T11:28:51.554Z,14.48
2023-01-19T11:33:56.776Z,14.46
2023-01-19T11:39:24.532Z,14.46
2023-01-19T11:44:32.845Z,14.46
2023-01-19T11:49:49.817Z,14.46
2023-01-19T11:55:01.771Z,14.46
2023-01-19T12:00:17.719Z,14.45
2023-01-19T12:05:20.907Z,14.44
2023-01-19T12:10:29.554Z,14.45
2023-01-19T12:15:43.290Z,14.44
2023-01-19T12:20:50.347Z,14.44
2023-01-19T12:26:25.054Z,14.41
2023-01-19T12:31:27.628Z,14.46
2023-01-19T12:36:29.912Z,14.45
2023-01-19T12:41:35.933Z,14.45
2023-01-19T12:46:47.410Z,14.44
2023-01-19T12:51:52.636Z,14.44
2023-01-19T12:57:01.656Z,14.44
2023-01-19T13:02:18.832Z,14.44
2023-01-19T13:07:21.048Z,14.46
2023-01-19T13:12:25.991Z,14.48
2023-01-19T13:17:50.096Z,14.47
2023-01-19T13:23:13.197Z,14.45
2023-01-19T13:28:18.510Z,14.43
2023-01-19T13:33:24.786Z,14.48
2023-01-19T13:38:28.276Z,14.49
2023-01-19T13:43:38.041Z,14.50
2023-01-19T13:48:51.429Z,14.51
2023-01-19T13:53:55.328Z,14.50
2023-01-19T13:59:12.002Z,14.50
2023-01-19T14:04:34.075Z,14.47
2023-01-19T14:09:36.278Z,14.49
2023-01-19T14:14:39.002Z,14.49
2023-01-19T14:19:51.379Z,14.49
2023-01-19T14:24:53.534Z,14.50
2023-01-19T14:30:21.737Z,14.52
2023-01-19T14:35:25.033Z,14.52
2023-01-19T14:40:27.351Z,14.53
2023-01-19T14:45:35.463Z,14.52
2023-01-19T14:50:41.565Z,14.52
2023-01-19T14:56:07.082Z,14.53
2023-01-19T15:01:09.530Z,14.52
2023-01-19T15:06:17.808Z,14.53
2023-01-19T15:11:23.564Z,14.52
2023-01-19T15:16:28.043Z,14.56
2023-01-19T15:21:30.306Z,14.56
2023-01-19T15:26:32.507Z,14.57
2023-01-19T15:31:36.088Z,14.56
2023-01-19T15:36:38.254Z,14.53
2023-01-19T15:41:40.980Z,14.58
2023-01-19T15:46:43.150Z,14.57
2023-01-19T15:51:45.842Z,14.60
2023-01-19T15:56:48.229Z,14.59
2023-01-19T16:01:51.097Z,14.60
2023-01-19T16:06:53.414Z,14.58
2023-01-19T16:11:57.320Z,14.57
2023-01-19T16:17:02.172Z,14.57
2023-01-19T16:22:05.788Z,14.59
2023-01-19T16:27:09.091Z,14.55
2023-01-19T16:32:11.337Z,14.56
2023-01-19T16:37:13.615Z,14.56
2023-01-19T16:42:16.770Z,14.57
2023-01-19T16:47:18.938Z,14.56
2023-01-19T16:52:21.102Z,14.53
2023-01-19T16:57:23.393Z,14.56
2023-01-19T17:02:25.522Z,14.53
2023-01-19T17:07:28.515Z,14.53
2023-01-19T17:12:32.337Z,14.55
2023-01-19T17:17:36.496Z,14.56
2023-01-19T17:22:38.729Z,14.54
2023-01-19T17:27:40.969Z,14.57
2023-01-19T17:32:43.248Z,14.58
2023-01-19T17:37:45.454Z,14.57
2023-01-19T17:42:48.151Z,14.52
2023-01-19T17:47:50.776Z,14.48
2023-01-19T17:52:53.048Z,14.53
2023-01-19T17:57:55.236Z,14.52
2023-01-19T18:02:57.470Z,14.53
2023-01-19T18:08:00.648Z,14.52
2023-01-19T18:13:02.823Z,14.55
2023-01-19T18:18:05.050Z,14.57
2023-01-19T18:23:07.646Z,14.59
2023-01-19T18:28:10.093Z,14.59
2023-01-19T18:33:12.227Z,14.60
2023-01-19T18:38:14.887Z,14.59
2023-01-19T18:43:16.984Z,14.62
2023-01-19T18:48:19.111Z,14.59
2023-01-19T18:53:22.091Z,14.57
2023-01-19T18:58:25.269Z,14.58
2023-01-19T19:03:27.857Z,14.60
2023-01-19T19:08:30.255Z,14.60
2023-01-19T19:13:32.597Z,14.62
2023-01-19T19:18:36.355Z,14.59
2023-01-19T19:23:38.900Z,14.59
2023-01-19T19:28:41.666Z,14.63
2023-01-19T19:33:44.405Z,14.63
2023-01-19T19:38:47.864Z,14.57
2023-01-19T19:43:50.696Z,14.64
2023-01-19T19:48:53.901Z,14.66
2023-01-19T19:54:00.589Z,14.64
2023-01-19T19:59:02.720Z,14.61
2023-01-19T20:04:10.916Z,14.59
2023-01-19T20:09:14.466Z,14.60
2023-01-19T20:14:16.970Z,14.61
2023-01-19T20:19:19.400Z,14.61
2023-01-19T20:24:21.605Z,14.62
2023-01-19T20:29:23.930Z,14.62
2023-01-19T20:34:32.847Z,14.66
2023-01-19T20:39:37.068Z,14.64
2023-01-19T20:44:39.897Z,14.61
2023-01-19T20:49:42.306Z,14.63
2023-01-19T20:54:44.508Z,14.62
2023-01-19T20:59:46.663Z,14.64
2023-01-19T21:04:49.035Z,14.67
2023-01-19T21:09:51.273Z,14.65
2023-01-19T21:14:53.575Z,14.65
2023-01-19T21:19:55.692Z,14.65
2023-01-19T21:24:57.992Z,14.61
2023-01-19T21:30:02.457Z,14.62
2023-01-19T21:35:04.970Z,14.58
2023-01-19T21:40:08.056Z,14.61
2023-01-19T21:45:10.421Z,14.62
2023-01-19T21:50:12.676Z,14.63
2023-01-19T21:55:15.306Z,14.59
2023-01-19T22:00:18.280Z,14.65
2023-01-19T22:05:20.433Z,14.65
2023-01-19T22:10:22.576Z,14.62
2023-01-19T22:15:24.755Z,14.66
2023-01-19T22:20:27.010Z,14.64
2023-01-19T22:25:29.311Z,14.62
2023-01-19T22:30:31.611Z,14.62
2023-01-19T22:35:33.732Z,14.59
2023-01-19T22:40:35.875Z,14.59
2023-01-19T22:45:41.682Z,14.57
2023-01-19T22:50:43.849Z,14.56
2023-01-19T22:55:45.985Z,14.56
2023-01-19T23:00:48.310Z,14.57
2023-01-19T23:06:11.254Z,14.57
2023-01-19T23:11:16.269Z,14.56
2023-01-19T23:16:19.014Z,14.58
2023-01-19T23:21:23.171Z,14.60
2023-01-19T23:26:26.333Z,14.61
2023-01-19T23:31:33.962Z,14.61
2023-01-19T23:36:38.063Z,14.60
2023-01-19T23:41:40.319Z,14.60
2023-01-19T23:46:44.135Z,14.57
2023-01-19T23:51:46.380Z,14.55
2023-01-19T23:56:48.651Z,14.56
